Pagrindinis puslapis
METAR-TAF:

METAR-TAF

Oro uostai :

Kuenka, Ekvadoras

platuma: 02-53-22S, ilguma: 078-59-04W, Aukštis: 2532 m

Dabartinis oras

Ataskaita buvo paskelbta 45 minutes, ne 03:00 UTC
Vėjas 2 kt iš Šiaurės Vakarų
Temperatūra 15°C
Drėgmė 77%
Slėgis 1025 hPa
Matomumas 10 km arba daugiau
Su prošvaistėmis ne aukštis 3300 ft

METAR: SECU 170300Z 31002KT 9999 BKN033 15/11 Q1025

Laikas: 22:45 (03:45 UTC)


TAF: trūkstamas

Orai ataskaitas ir orų prognozės (METAR, TAF).

turimą stotys yra geltonos ir raudonos taškus žemėlapyje.

Perkelti pele per norėdami pamatyti stoties vardą.

Tada spustelėkite, norėdami matyti oro stebėjimo ir prognozės.

Norėdami pakeisti žemėlapį: spustelėkite ant žalios mygtukų su juodo kryžiaus žemyn,; žalią mygtuką su brūkšneliu, jei norite nutolinti; arba žalių rodyklių gretimoms žemėlapius.


METAR-TAF: